Latest Weather Observations for Wangaratta

IDV60801

Issued at 3:35 pm EDT Sunday 26 October 2014 (issued every 30 minutes, with the page automatically refreshed every 10 minutes)

About weather observations | Map of weather stations | Latest weather observations for VIC | Other Formats
Station Details ID: 082138 Name: WANGARATTA AERO Lat: -36.42 Lon: 146.31 Height: 152.6 m
Data from the previous 72 hours. | See also: Recent months at Wangaratta
Date/Time
EDT
Temp
°C
App
Temp
°C
Dew
Point
Rel
Hum
%
Delta-T
°C
Wind Press
QNH
hPa
Press
MSL
hPa
Rain
since 9 am
mm
Dir
 
Spd
km/h
Gust
km/h
Spd
kts
Gust
kts
26/03:30pm 27.0 21.3 4.7 24 11.4 W 24 37 13 20 1010.8 1010.8 0.0
26/03:00pm 26.9 21.4 5.8 26 11.0 W 24 37 13 20 1010.8 1010.8 0.0
26/02:30pm 27.0 21.3 4.7 24 11.4 W 24 39 13 21 1010.9 1010.9 0.0
26/02:00pm 27.4 23.3 4.5 23 11.7 WSW 15 26 8 14 1010.5 1010.4 0.0
26/01:30pm 27.7 22.8 4.1 22 12.0 W 19 28 10 15 1010.7 1010.6 0.0
26/01:00pm 26.7 23.1 6.7 28 10.6 W 15 20 8 11 1011.0 1011.0 0.0
26/12:30pm 26.0 22.7 9.4 35 9.2 W 17 24 9 13 1011.1 1011.1 0.0
26/12:00pm 26.4 23.6 8.4 32 9.8 W 13 22 7 12 1011.5 1011.5 0.0
26/11:30am 25.3 24.1 10.4 39 8.3 WNW 7 11 4 6 1011.7 1011.6 0.0
26/11:00am 23.8 22.7 10.1 42 7.6 W 6 13 3 7 1011.8 1011.7 0.0
26/10:30am 22.5 21.5 10.3 46 6.7 SW 6 13 3 7 1011.9 1011.8 0.0
26/10:00am 21.6 21.3 11.3 52 5.8 W 4 9 2 5 1011.8 1011.7 0.0
26/09:30am 20.7 20.2 11.9 57 4.9 SE 6 9 3 5 1012.0 1011.9 0.0
26/09:00am 18.5 18.7 12.0 66 3.6 W 2 7 1 4 1012.0 1011.9 0.0
26/08:30am 16.4 15.5 12.6 78 2.1 SSW 9 11 5 6 1011.7 1011.6 0.0
26/08:00am 14.7 14.2 12.7 88 1.1 S 7 11 4 6 1011.4 1011.4 0.0
26/07:30am 12.5 13.0 11.7 95 0.4 CALM 0 0 0 0 1011.1 1011.1 0.0
26/07:00am 10.2 9.4 9.7 97 0.3 SE 4 7 2 4 1010.8 1010.8 0.0
26/06:30am 9.9 9.1 9.8 99 0.1 NE 4 6 2 3 1010.6 1010.5 0.0
26/06:00am 10.4 10.5 10.2 99 0.1 SE 0 0 0 0 1010.3 1010.2 0.0
26/05:30am 10.9 11.1 10.6 98 0.2 CALM 0 0 0 0 1010.2 1010.1 0.0
26/05:00am 10.5 9.6 9.4 93 0.6 ESE 4 9 2 5 1010.0 1009.9 0.0
26/04:30am 11.2 9.8 8.9 86 1.2 ESE 6 7 3 4 1009.8 1009.7 0.0
26/04:00am 13.8 11.9 10.6 81 1.7 SSW 11 13 6 7 1009.7 1009.6 0.0
26/03:30am 14.3 12.2 11.3 82 1.6 SW 13 15 7 8 1009.8 1009.7 0.0
26/03:00am 15.5 14.2 11.3 76 2.3 SW 9 11 5 6 1010.0 1009.9 0.0
26/02:30am 15.6 13.5 11.2 75 2.4 SW 13 15 7 8 1010.0 1009.9 0.0
26/02:00am 15.4 12.6 11.2 76 2.3 SSW 17 19 9 10 1010.2 1010.1 0.0
26/01:30am 14.0 13.0 11.0 82 1.6 S 7 9 4 5 1010.5 1010.4 0.0
26/01:00am 16.4 15.7 11.3 72 2.8 SE 6 7 3 4 1010.6 1010.5 0.0
26/12:30am 16.4 15.6 11.6 73 2.6 E 7 7 4 4 1010.8 1010.8 0.0
26/12:00am 18.7 17.5 12.7 68 3.4 S 11 13 6 7 1010.8 1010.8 0.0
 
Date/Time
EDT
Temp
°C
App
Temp
°C
Dew
Point
Rel
Hum
%
Delta-T
°C
Wind Press
QNH
hPa
Press
MSL
hPa
Rain
since 9 am
mm
Dir
 
Spd
km/h
Gust
km/h
Spd
kts
Gust
kts
25/11:30pm 18.7 17.0 12.5 67 3.5 S 13 17 7 9 1010.8 1010.8 0.0
25/11:00pm 18.0 16.1 12.9 72 2.9 SSW 15 17 8 9 1011.0 1011.0 0.0
25/10:30pm 20.7 19.1 12.9 61 4.5 S 13 17 7 9 1011.1 1011.1 0.0
25/10:00pm 20.3 18.3 12.8 62 4.3 S 15 19 8 10 1011.0 1011.0 0.0
25/09:30pm 21.1 19.8 12.5 58 4.9 S 11 13 6 7 1011.2 1011.2 0.0
25/09:00pm 21.0 19.3 13.7 63 4.2 SSW 15 19 8 10 1010.9 1010.9 0.0
25/08:30pm 21.2 20.4 12.9 59 4.8 SSW 9 11 5 6 1010.2 1010.1 0.0
25/08:00pm 22.0 21.6 13.1 57 5.1 SSW 7 11 4 6 1009.9 1009.8 0.0
25/07:30pm 25.8 24.7 11.9 42 8.0 S 9 9 5 5 1009.6 1009.5 0.0
25/07:00pm 27.6 25.6 10.3 34 9.8 S 11 13 6 7 1009.3 1009.2 0.0
25/06:30pm 29.5 28.1 9.6 29 11.2 SSE 7 9 4 5 1009.2 1009.1 0.0
25/06:00pm 30.5 27.7 7.0 23 12.8 E 11 15 6 8 1009.4 1009.3 0.0
25/05:30pm 31.1 29.5 6.2 21 13.4 E 4 9 2 5 1009.7 1009.6 0.0
25/05:00pm 31.7 29.6 6.7 21 13.6 E 7 13 4 7 1010.0 1009.9 0.0
25/04:30pm 31.0 29.5 6.8 22 13.1 NE 4 7 2 4 1010.5 1010.4 0.0
25/04:00pm 30.5 28.5 6.4 22 13.0 N 6 11 3 6 1011.2 1011.2 0.0
25/03:30pm 31.1 28.1 6.2 21 13.4 NE 11 15 6 8 1011.7 1011.6 0.0
25/03:00pm 30.1 26.0 6.1 22 12.8 N 17 22 9 12 1011.9 1011.8 0.0
25/02:30pm 31.2 27.9 8.2 24 12.8 N 15 22 8 12 1012.4 1012.3 0.0
25/02:00pm 30.8 28.4 8.5 25 12.4 N 11 19 6 10 1013.0 1012.9 0.0
25/01:30pm 29.5 26.4 7.4 25 12.0 NNW 13 20 7 11 1013.3 1013.2 0.0
25/01:00pm 29.6 27.6 8.6 27 11.7 NNW 9 15 5 8 1013.5 1013.4 0.0
25/12:30pm 28.4 26.2 9.2 30 10.7 N 11 17 6 9 1013.9 1013.8 0.0
25/12:00pm 27.0 25.3 9.8 34 9.6 N 9 17 5 9 1014.5 1014.4 0.0
25/11:30am 25.6 24.2 11.0 40 8.3 N 9 15 5 8 1015.0 1014.9 0.0
25/11:00am 25.4 23.9 10.4 39 8.4 N 9 13 5 7 1015.2 1015.1 0.0
25/10:30am 24.2 23.1 10.8 43 7.5 N 7 13 4 7 1015.4 1015.3 0.0
25/10:00am 22.8 22.6 11.8 50 6.2 E 4 7 2 4 1015.5 1015.4 0.0
25/09:30am 20.6 20.6 11.0 54 5.3 E 2 7 1 4 1015.7 1015.6 0.0
25/09:00am 19.8 19.8 11.3 58 4.7 SE 2 9 1 5 1015.6 1015.5 0.0
25/08:30am 16.4 17.0 11.8 74 2.5 CALM 0 0 0 0 1015.8 1015.7 0.0
25/08:00am 14.4 15.3 12.8 90 0.9 CALM 0 0 0 0 1015.6 1015.5 0.0
25/07:30am 12.4 13.2 12.4 100 0.0 CALM 0 0 0 0 1015.3 1015.2 0.0
25/07:00am 10.0 10.1 10.0 100 0.0 CALM 0 0 0 0 1015.2 1015.1 0.0
25/06:30am 8.9 8.7 8.9 100 0.0 CALM 0 0 0 0 1014.9 1014.8 0.0
25/06:00am 8.7 7.3 8.7 100 0.0 S 6 7 3 4 1014.5 1014.4 0.0
25/05:30am 8.6 8.3 8.6 100 0.0 CALM 0 0 0 0 1014.4 1014.3 0.0
25/05:00am 9.7 9.7 9.7 100 0.0 CALM 0 0 0 0 1014.0 1013.9 0.0
25/04:30am 9.0 8.8 9.0 100 0.0 CALM 0 6 0 3 1013.9 1013.8 0.0
25/04:00am 10.0 9.3 9.9 99 0.1 SSE 4 6 2 3 1013.8 1013.7 0.0
25/03:30am 10.3 10.1 10.3 100 0.0 S 2 7 1 4 1013.8 1013.7 0.0
25/03:00am 9.9 9.9 9.8 99 0.1 CALM 0 0 0 0 1013.8 1013.7 0.0
25/02:30am 10.0 9.9 9.4 96 0.3 CALM 0 0 0 0 1013.8 1013.7 0.0
25/02:00am 10.6 10.7 10.0 96 0.3 CALM 0 0 0 0 1013.8 1013.7 0.0
25/01:30am 10.7 10.6 9.5 92 0.6 CALM 0 0 0 0 1014.0 1013.9 0.0
25/01:00am 12.2 11.6 10.4 89 0.9 S 4 6 2 3 1014.3 1014.2 0.0
25/12:30am 12.0 10.8 9.6 85 1.2 SSE 6 7 3 4 1014.2 1014.1 0.0
25/12:00am 13.1 12.2 10.6 85 1.3 S 6 7 3 4 1014.1 1014.0 0.0
 
Date/Time
EDT
Temp
°C
App
Temp
°C
Dew
Point
Rel
Hum
%
Delta-T
°C
Wind Press
QNH
hPa
Press
MSL
hPa
Rain
since 9 am
mm
Dir
 
Spd
km/h
Gust
km/h
Spd
kts
Gust
kts
24/11:30pm 13.1 12.7 9.9 81 1.7 SSW 2 6 1 3 1014.0 1013.9 0.0
24/11:00pm 14.4 13.4 10.4 77 2.1 SSE 6 6 3 3 1014.0 1013.9 0.0
24/10:30pm 15.3 15.4 10.3 72 2.6 CALM 0 6 0 3 1013.8 1013.7 0.0
24/10:00pm 16.5 16.7 10.4 67 3.3 CALM 0 6 0 3 1013.6 1013.5 0.0
24/09:30pm 18.6 18.4 9.1 54 5.0 CALM 0 0 0 0 1013.5 1013.4 0.0
24/09:00pm 21.6 18.7 6.3 37 7.8 WNW 11 13 6 7 1013.3 1013.2 0.0
24/08:30pm 22.0 19.7 8.9 43 7.0 W 11 15 6 8 1013.1 1013.0 0.0
24/08:00pm 22.9 21.1 9.3 42 7.4 NW 9 11 5 6 1012.5 1012.4 0.0
24/07:30pm 25.0 23.4 8.9 36 8.8 WNW 7 9 4 5 1012.0 1011.9 0.0
24/07:00pm 26.7 24.7 8.6 32 9.9 W 9 17 5 9 1011.8 1011.7 0.0
24/06:30pm 27.7 24.7 7.5 28 10.9 W 13 19 7 10 1011.5 1011.5 0.0
24/06:00pm 28.4 23.7 5.9 24 11.9 W 20 28 11 15 1011.2 1011.2 0.0
24/05:30pm 28.6 24.2 7.2 26 11.5 W 20 28 11 15 1011.2 1011.2 0.0
24/05:00pm 29.4 26.0 9.0 28 11.4 WSW 17 24 9 13 1011.0 1011.0 0.0
24/04:30pm 29.2 24.9 10.8 32 10.6 WSW 24 39 13 21 1011.1 1011.1 0.0
24/04:00pm 28.2 24.4 11.3 35 9.7 W 22 30 12 16 1011.1 1011.1 0.0
24/03:30pm 29.3 25.6 9.4 29 11.2 WNW 19 26 10 14 1011.0 1011.0 0.0
24/03:00pm 29.6 25.8 9.7 29 11.3 WNW 20 26 11 14 1010.9 1010.9 0.0
24/02:30pm 30.5 24.4 6.4 22 13.0 WNW 28 39 15 21 1011.1 1011.1 0.0
24/02:00pm 31.8 27.9 9.3 25 12.8 WNW 20 28 11 15 1011.3 1011.3 0.0
24/01:49pm 31.2 24.7 6.3 21 13.4 NNW 30 35 16 19 1011.3 1011.3 0.0
24/01:30pm 30.9 29.2 9.7 27 12.1 NNW 9 17 5 9 1011.4 1011.4 0.0
24/01:00pm 30.6 28.0 9.5 27 11.9 N 13 32 7 17 1011.8 1011.7 0.0
24/12:30pm 29.6 26.5 10.2 30 11.1 N 17 26 9 14 1012.2 1012.1 0.0
24/12:00pm 28.8 25.2 10.5 32 10.4 N 20 30 11 16 1012.6 1012.5 0.0
24/11:30am 28.5 24.7 11.1 34 10.0 N 22 30 12 16 1012.8 1012.7 0.0
24/11:00am 28.2 24.4 11.3 35 9.7 N 22 30 12 16 1013.1 1013.0 0.0
24/10:30am 26.4 21.4 10.9 38 8.8 N 28 37 15 20 1013.3 1013.2 0.0
24/10:00am 25.3 20.2 10.7 40 8.2 N 28 35 15 19 1013.5 1013.4 0.0
24/09:30am 24.9 19.8 10.7 40 8.0 N 28 39 15 21 1013.6 1013.5 0.0
24/09:00am 24.3 18.0 10.9 43 7.5 NNE 35 43 19 23 1013.8 1013.7 0.0
24/08:30am 23.5 21.2 11.9 48 6.6 N 15 24 8 13 1014.1 1014.0 0.0
24/08:26am 23.2 22.8 13.1 53 5.9 N 7 19 4 10 1014.1 1014.0 0.0
24/08:00am 18.1 20.0 15.7 86 1.4 CALM 0 0 0 0 1014.1 1014.0 0.0
24/07:30am 14.6 16.1 14.6 100 0.0 CALM 0 0 0 0 1014.1 1014.0 0.0
24/07:00am 12.2 12.5 12.2 100 0.0 SSE 2 7 1 4 1014.0 1013.9 0.0
24/06:30am 12.4 12.0 12.4 100 0.0 SE 6 9 3 5 1013.6 1013.5 0.0
24/06:00am 11.9 12.4 11.7 99 0.1 CALM 0 0 0 0 1013.5 1013.4 0.0
24/05:30am 12.9 13.4 12.7 99 0.1 SE 2 6 1 3 1013.2 1013.1 0.0
24/05:00am 12.7 13.5 12.5 99 0.1 CALM 0 0 0 0 1013.0 1012.9 0.0
24/04:30am 12.9 13.6 12.3 96 0.3 CALM 0 0 0 0 1012.7 1012.6 0.0
24/04:00am 13.7 14.6 12.8 94 0.5 CALM 0 0 0 0 1012.8 1012.7 0.0
24/03:30am 14.6 15.9 14.0 96 0.3 CALM 0 6 0 3 1012.9 1012.8 0.0
24/03:00am 14.5 15.7 13.9 96 0.3 CALM 0 0 0 0 1013.3 1013.2 0.0
24/02:30am 13.9 13.6 12.8 93 0.6 WNW 6 9 3 5 1013.4 1013.3 0.0
24/02:00am 14.8 15.5 12.3 85 1.4 CALM 0 0 0 0 1013.4 1013.3 0.0
24/01:30am 16.1 15.8 13.4 84 1.5 E 7 11 4 6 1013.7 1013.6 0.0
24/01:00am 16.5 16.6 13.8 84 1.5 ESE 6 9 3 5 1014.1 1014.0 0.0
24/12:30am 16.7 16.8 13.8 83 1.7 ESE 6 11 3 6 1014.1 1014.0 0.0
24/12:00am 16.5 16.5 13.6 83 1.6 WSW 6 9 3 5 1014.1 1014.0 0.0
 
Date/Time
EDT
Temp
°C
App
Temp
°C
Dew
Point
Rel
Hum
%
Delta-T
°C
Wind Press
QNH
hPa
Press
MSL
hPa
Rain
since 9 am
mm
Dir
 
Spd
km/h
Gust
km/h
Spd
kts
Gust
kts
23/11:30pm 17.4 17.4 14.1 81 1.9 SSW 7 7 4 4 1013.9 1013.8 0.0
23/11:00pm 18.0 17.5 13.7 76 2.5 S 9 9 5 5 1013.8 1013.7 0.0
23/10:30pm 19.2 18.3 13.8 71 3.1 S 11 13 6 7 1013.5 1013.4 0.0
23/10:00pm 18.8 18.2 13.6 72 3.0 S 9 11 5 6 1013.3 1013.2 0.0
23/09:30pm 19.3 18.8 14.8 75 2.6 SSW 11 11 6 6 1013.2 1013.1 0.0
23/09:00pm 19.6 19.7 14.4 72 3.0 SSW 7 9 4 5 1012.8 1012.7 0.0
23/08:30pm 23.9 23.8 13.2 51 6.2 ESE 6 7 3 4 1012.4 1012.3 0.0
23/08:00pm 25.7 25.3 12.9 45 7.5 SE 7 9 4 5 1012.1 1012.0 0.0
23/07:30pm 27.3 26.6 13.3 42 8.3 SE 9 11 5 6 1011.8 1011.7 0.0
23/07:00pm 29.2 28.0 11.7 34 10.2 ESE 9 13 5 7 1011.7 1011.6 0.0
23/06:30pm 30.8 29.8 12.2 32 11.0 E 9 13 5 7 1011.5 1011.5 0.0
23/06:00pm 31.6 29.4 10.9 28 12.0 E 13 17 7 9 1011.4 1011.4 0.0
23/05:30pm 31.9 29.4 11.1 28 12.1 E 15 20 8 11 1011.5 1011.5 0.0
23/05:00pm 31.7 29.2 11.0 28 12.1 E 15 22 8 12 1011.8 1011.7 0.0
23/04:30pm 32.1 30.4 12.3 29 11.8 ENE 13 17 7 9 1012.1 1012.0 0.0
23/04:00pm 31.5 29.4 11.3 29 11.8 E 13 19 7 10 1012.4 1012.3 0.0

Other Formats:

Comma delimited format used in spreadsheet applications
http://www.bom.gov.au/fwo/IDV60801/IDV60801.94889.axf

JavaScript Object Notation format (JSON) in row-major order
http://www.bom.gov.au/fwo/IDV60801/IDV60801.94889.json